Terminal Aerodrome Forecast
Issued by NWS

Home | Current Version | Previous Version | Graphics & Text | Print | Product List | Glossary On
Versions: 1 2 3 4 5 6 7 8 9 10 11 12 13 14 15 16 17 18 19 20 21 22 23 24 25 26 27 28 29 30 31 32 33 34
000
FTUS43 KPAH 211120
TAFOWB
TAF
KOWB 211120Z 2112/2212 15006KT P6SM SCT050 BKN200
     FM211800 18009KT P6SM VCSH SCT025 BKN090 PROB30 2121/2201 4SM
      -TSRA BKN030CB
     FM220400 19005KT P6SM FEW035 BKN100=

USA.gov is the U.S. government's official web portal to all federal, state and local government web resources and services.